Archival Weather

NSFA McMurdo Sound

NSFA McMurdo Sound, Antarctica (NZCM)

Report from: Tuesday, September 19, 2023 3:55 AM UTC
Current time: Tuesday, July 16, 2024 8:57 AM UTC

Current weather – Weather history – Daily summaries
Weather forecast

Temperature-14.1°C (6.6°F)
Wind chill-24.2°C (-11.5°F)
Dew point-18.1°C (-0.6°F)
Winds 14 kts (7.2 m/s, 16.1 mph) Vrb
Wind gusts 22 kts (11.3 m/s, 25.3 mph)
Winds variableWinds variable from North-Northeast (30°) to East (100°)
Visibility6.2 mi. (10 km)
Clouds Ceiling: Overcast 8,000 ft. (2,438 m)
Altimeter28.94 in.Hg (980 mB)
Relative humidity72 %
Density altitude-5,918 ft. (-1,804 m)
Sea-level pressure108.1 kPa (1081 mB, 31.91 in.Hg)
Remarks Fully automated report
Automated weather observing station with precipitation discriminator
Flight conditions Visual Meteorological Conditions
Raw dataNZCM 190355Z AUTO 05014G22KT 030V100 9999 OVC080 M14/M18 A2894 RMK AO2 SLP806 T11411181
An error has occurred. This application may no longer respond until reloaded. Reload 🗙